<?xml version="1.0" encoding="UTF-8" standalone="no" ?>
<gpx xmlns="http://www.topografix.com/GPX/1/1" xmlns:xsi="http://www.w3.org/2001/XMLSchema-instance" xsi:schemaLocation="http://www.topografix.com/GPX/1/1 http://www.topografix.com/GPX/1/1/gpx.xsd" version="1.1" creator="VisuGPX - https://www.visugpx.com">
  <metadata>
    <name>Ballades lac de chalin</name>
    <desc><![CDATA[Visualisation des différents tracés pour aller se balader au tour du lac de Chalain.

Sources des tracés :
http://www.visorando.com/randonnee-tour-du-lac-de-chalain/-2
http://www.visorando.com/randonnee-lac-de-chalain/
http://www.visorando.com/randonnee-balade-autour-du-lac-de-chalain/

]]></desc>
  </metadata>
  <trk>
    <name><![CDATA[Balade autour du lac de Chalain]]></name>
    <trkseg>
      <trkpt lat="46.68271" lon="5.78276">
        <ele>516</ele>
        <time>2016-06-05T18:50:36+02:00</time>
      </trkpt>
      <trkpt lat="46.682" lon="5.7837">
        <ele>518</ele>
        <time>2016-06-05T18:50:41+02:00</time>
      </trkpt>
      <trkpt lat="46.68124" lon="5.78333">
        <ele>515</ele>
        <time>2016-06-05T18:50:46+02:00</time>
      </trkpt>
      <trkpt lat="46.68088" lon="5.78479">
        <ele>515</ele>
        <time>2016-06-05T18:50:51+02:00</time>
      </trkpt>
      <trkpt lat="46.68103" lon="5.78573">
        <ele>515</ele>
        <time>2016-06-05T18:50:56+02:00</time>
      </trkpt>
      <trkpt lat="46.68045" lon="5.78751">
        <ele>512</ele>
        <time>2016-06-05T18:51:01+02:00</time>
      </trkpt>
      <trkpt lat="46.68074" lon="5.78954">
        <ele>505</ele>
        <time>2016-06-05T18:51:06+02:00</time>
      </trkpt>
      <trkpt lat="46.68042" lon="5.78996">
        <ele>504</ele>
        <time>2016-06-05T18:51:11+02:00</time>
      </trkpt>
      <trkpt lat="46.68009" lon="5.79137">
        <ele>510</ele>
        <time>2016-06-05T18:51:16+02:00</time>
      </trkpt>
      <trkpt lat="46.6798" lon="5.79215">
        <ele>512</ele>
        <time>2016-06-05T18:51:21+02:00</time>
      </trkpt>
      <trkpt lat="46.67909" lon="5.79268">
        <ele>520</ele>
        <time>2016-06-05T18:51:26+02:00</time>
      </trkpt>
      <trkpt lat="46.67858" lon="5.79325">
        <ele>523</ele>
        <time>2016-06-05T18:51:31+02:00</time>
      </trkpt>
      <trkpt lat="46.67801" lon="5.79346">
        <ele>526</ele>
        <time>2016-06-05T18:51:36+02:00</time>
      </trkpt>
      <trkpt lat="46.67732" lon="5.79356">
        <ele>529</ele>
        <time>2016-06-05T18:51:41+02:00</time>
      </trkpt>
      <trkpt lat="46.67697" lon="5.79336">
        <ele>531</ele>
        <time>2016-06-05T18:51:46+02:00</time>
      </trkpt>
      <trkpt lat="46.67664" lon="5.79304">
        <ele>532</ele>
        <time>2016-06-05T18:51:51+02:00</time>
      </trkpt>
      <trkpt lat="46.67632" lon="5.7932">
        <ele>530</ele>
        <time>2016-06-05T18:51:56+02:00</time>
      </trkpt>
      <trkpt lat="46.67614" lon="5.79346">
        <ele>531</ele>
        <time>2016-06-05T18:52:01+02:00</time>
      </trkpt>
      <trkpt lat="46.67585" lon="5.79398">
        <ele>534</ele>
        <time>2016-06-05T18:52:06+02:00</time>
      </trkpt>
      <trkpt lat="46.67574" lon="5.79476">
        <ele>539</ele>
        <time>2016-06-05T18:52:11+02:00</time>
      </trkpt>
      <trkpt lat="46.67503" lon="5.7945">
        <ele>534</ele>
        <time>2016-06-05T18:52:16+02:00</time>
      </trkpt>
      <trkpt lat="46.67434" lon="5.79497">
        <ele>529</ele>
        <time>2016-06-05T18:52:21+02:00</time>
      </trkpt>
      <trkpt lat="46.67398" lon="5.79539">
        <ele>526</ele>
        <time>2016-06-05T18:52:26+02:00</time>
      </trkpt>
      <trkpt lat="46.67348" lon="5.79659">
        <ele>520</ele>
        <time>2016-06-05T18:52:31+02:00</time>
      </trkpt>
      <trkpt lat="46.67334" lon="5.80004">
        <ele>518</ele>
        <time>2016-06-05T18:52:36+02:00</time>
      </trkpt>
      <trkpt lat="46.67298" lon="5.80322">
        <ele>522</ele>
        <time>2016-06-05T18:52:41+02:00</time>
      </trkpt>
      <trkpt lat="46.67229" lon="5.80588">
        <ele>516</ele>
        <time>2016-06-05T18:52:46+02:00</time>
      </trkpt>
      <trkpt lat="46.67176" lon="5.80865">
        <ele>522</ele>
        <time>2016-06-05T18:52:51+02:00</time>
      </trkpt>
      <trkpt lat="46.67154" lon="5.80928">
        <ele>519</ele>
        <time>2016-06-05T18:52:56+02:00</time>
      </trkpt>
      <trkpt lat="46.66992" lon="5.81163">
        <ele>522</ele>
        <time>2016-06-05T18:53:01+02:00</time>
      </trkpt>
      <trkpt lat="46.66931" lon="5.81267">
        <ele>525</ele>
        <time>2016-06-05T18:53:06+02:00</time>
      </trkpt>
      <trkpt lat="46.66902" lon="5.81246">
        <ele>511</ele>
        <time>2016-06-05T18:53:11+02:00</time>
      </trkpt>
      <trkpt lat="46.66766" lon="5.8145">
        <ele>505</ele>
        <time>2016-06-05T18:53:16+02:00</time>
      </trkpt>
      <trkpt lat="46.66615" lon="5.81403">
        <ele>495</ele>
        <time>2016-06-05T18:53:21+02:00</time>
      </trkpt>
      <trkpt lat="46.66575" lon="5.81486">
        <ele>497</ele>
        <time>2016-06-05T18:53:26+02:00</time>
      </trkpt>
      <trkpt lat="46.66493" lon="5.81429">
        <ele>498</ele>
        <time>2016-06-05T18:53:31+02:00</time>
      </trkpt>
      <trkpt lat="46.66389" lon="5.8111">
        <ele>507</ele>
        <time>2016-06-05T18:53:36+02:00</time>
      </trkpt>
      <trkpt lat="46.66575" lon="5.80672">
        <ele>515</ele>
        <time>2016-06-05T18:53:41+02:00</time>
      </trkpt>
      <trkpt lat="46.66575" lon="5.80364">
        <ele>513</ele>
        <time>2016-06-05T18:53:46+02:00</time>
      </trkpt>
      <trkpt lat="46.66622" lon="5.80014">
        <ele>513</ele>
        <time>2016-06-05T18:53:51+02:00</time>
      </trkpt>
      <trkpt lat="46.66637" lon="5.79816">
        <ele>505</ele>
        <time>2016-06-05T18:53:56+02:00</time>
      </trkpt>
      <trkpt lat="46.66622" lon="5.79205">
        <ele>504</ele>
        <time>2016-06-05T18:54:01+02:00</time>
      </trkpt>
      <trkpt lat="46.66575" lon="5.78944">
        <ele>515</ele>
        <time>2016-06-05T18:54:06+02:00</time>
      </trkpt>
      <trkpt lat="46.66522" lon="5.78845">
        <ele>525</ele>
        <time>2016-06-05T18:54:11+02:00</time>
      </trkpt>
      <trkpt lat="46.66493" lon="5.78798">
        <ele>526</ele>
        <time>2016-06-05T18:54:16+02:00</time>
      </trkpt>
      <trkpt lat="46.66371" lon="5.78803">
        <ele>536</ele>
        <time>2016-06-05T18:54:21+02:00</time>
      </trkpt>
      <trkpt lat="46.66313" lon="5.78855">
        <ele>545</ele>
        <time>2016-06-05T18:54:26+02:00</time>
      </trkpt>
      <trkpt lat="46.66234" lon="5.78881">
        <ele>554</ele>
        <time>2016-06-05T18:54:31+02:00</time>
      </trkpt>
      <trkpt lat="46.66259" lon="5.7897">
        <ele>566</ele>
        <time>2016-06-05T18:54:36+02:00</time>
      </trkpt>
      <trkpt lat="46.66331" lon="5.79012">
        <ele>575</ele>
        <time>2016-06-05T18:54:41+02:00</time>
      </trkpt>
      <trkpt lat="46.66389" lon="5.79064">
        <ele>584</ele>
        <time>2016-06-05T18:54:46+02:00</time>
      </trkpt>
      <trkpt lat="46.66443" lon="5.79054">
        <ele>579</ele>
        <time>2016-06-05T18:54:51+02:00</time>
      </trkpt>
      <trkpt lat="46.66478" lon="5.79116">
        <ele>576</ele>
        <time>2016-06-05T18:54:56+02:00</time>
      </trkpt>
      <trkpt lat="46.6646" lon="5.79242">
        <ele>580</ele>
        <time>2016-06-05T18:55:01+02:00</time>
      </trkpt>
      <trkpt lat="46.66482" lon="5.79372">
        <ele>581</ele>
        <time>2016-06-05T18:55:06+02:00</time>
      </trkpt>
      <trkpt lat="46.66511" lon="5.79539">
        <ele>582</ele>
        <time>2016-06-05T18:55:11+02:00</time>
      </trkpt>
      <trkpt lat="46.66504" lon="5.79811">
        <ele>598</ele>
        <time>2016-06-05T18:55:16+02:00</time>
      </trkpt>
      <trkpt lat="46.66478" lon="5.79878">
        <ele>601</ele>
        <time>2016-06-05T18:55:21+02:00</time>
      </trkpt>
      <trkpt lat="46.66486" lon="5.79972">
        <ele>599</ele>
        <time>2016-06-05T18:55:26+02:00</time>
      </trkpt>
      <trkpt lat="46.66482" lon="5.80061">
        <ele>600</ele>
        <time>2016-06-05T18:55:31+02:00</time>
      </trkpt>
      <trkpt lat="46.66507" lon="5.80139">
        <ele>592</ele>
        <time>2016-06-05T18:55:36+02:00</time>
      </trkpt>
      <trkpt lat="46.66475" lon="5.80359">
        <ele>581</ele>
        <time>2016-06-05T18:55:41+02:00</time>
      </trkpt>
      <trkpt lat="46.66414" lon="5.80416">
        <ele>596</ele>
        <time>2016-06-05T18:55:46+02:00</time>
      </trkpt>
      <trkpt lat="46.66414" lon="5.8051">
        <ele>596</ele>
        <time>2016-06-05T18:55:51+02:00</time>
      </trkpt>
      <trkpt lat="46.66435" lon="5.80562">
        <ele>589</ele>
        <time>2016-06-05T18:55:56+02:00</time>
      </trkpt>
      <trkpt lat="46.66439" lon="5.80693">
        <ele>585</ele>
        <time>2016-06-05T18:56:01+02:00</time>
      </trkpt>
      <trkpt lat="46.66443" lon="5.80734">
        <ele>580</ele>
        <time>2016-06-05T18:56:06+02:00</time>
      </trkpt>
      <trkpt lat="46.66295" lon="5.81037">
        <ele>579</ele>
        <time>2016-06-05T18:56:11+02:00</time>
      </trkpt>
      <trkpt lat="46.66108" lon="5.81382">
        <ele>586</ele>
        <time>2016-06-05T18:56:16+02:00</time>
      </trkpt>
      <trkpt lat="46.66123" lon="5.81518">
        <ele>589</ele>
        <time>2016-06-05T18:56:21+02:00</time>
      </trkpt>
      <trkpt lat="46.66184" lon="5.81585">
        <ele>584</ele>
        <time>2016-06-05T18:56:26+02:00</time>
      </trkpt>
      <trkpt lat="46.66245" lon="5.81632">
        <ele>582</ele>
        <time>2016-06-05T18:56:31+02:00</time>
      </trkpt>
      <trkpt lat="46.66295" lon="5.81643">
        <ele>572</ele>
        <time>2016-06-05T18:56:36+02:00</time>
      </trkpt>
      <trkpt lat="46.66302" lon="5.81732">
        <ele>584</ele>
        <time>2016-06-05T18:56:41+02:00</time>
      </trkpt>
      <trkpt lat="46.66299" lon="5.81768">
        <ele>586</ele>
        <time>2016-06-05T18:56:46+02:00</time>
      </trkpt>
      <trkpt lat="46.66317" lon="5.81909">
        <ele>583</ele>
        <time>2016-06-05T18:56:51+02:00</time>
      </trkpt>
      <trkpt lat="46.66317" lon="5.81982">
        <ele>582</ele>
        <time>2016-06-05T18:56:56+02:00</time>
      </trkpt>
      <trkpt lat="46.66338" lon="5.82029">
        <ele>579</ele>
        <time>2016-06-05T18:57:01+02:00</time>
      </trkpt>
      <trkpt lat="46.66338" lon="5.82076">
        <ele>578</ele>
        <time>2016-06-05T18:57:06+02:00</time>
      </trkpt>
      <trkpt lat="46.66367" lon="5.82144">
        <ele>577</ele>
        <time>2016-06-05T18:57:11+02:00</time>
      </trkpt>
      <trkpt lat="46.66356" lon="5.82233">
        <ele>585</ele>
        <time>2016-06-05T18:57:16+02:00</time>
      </trkpt>
      <trkpt lat="46.66342" lon="5.82655">
        <ele>598</ele>
        <time>2016-06-05T18:57:21+02:00</time>
      </trkpt>
      <trkpt lat="46.66568" lon="5.82535">
        <ele>591</ele>
        <time>2016-06-05T18:57:26+02:00</time>
      </trkpt>
      <trkpt lat="46.66798" lon="5.82285">
        <ele>590</ele>
        <time>2016-06-05T18:57:31+02:00</time>
      </trkpt>
      <trkpt lat="46.66752" lon="5.82175">
        <ele>587</ele>
        <time>2016-06-05T18:57:36+02:00</time>
      </trkpt>
      <trkpt lat="46.66798" lon="5.82055">
        <ele>577</ele>
        <time>2016-06-05T18:57:41+02:00</time>
      </trkpt>
      <trkpt lat="46.6678" lon="5.81914">
        <ele>567</ele>
        <time>2016-06-05T18:57:46+02:00</time>
      </trkpt>
      <trkpt lat="46.66809" lon="5.81726">
        <ele>580</ele>
        <time>2016-06-05T18:57:51+02:00</time>
      </trkpt>
      <trkpt lat="46.67093" lon="5.81298">
        <ele>594</ele>
        <time>2016-06-05T18:57:56+02:00</time>
      </trkpt>
      <trkpt lat="46.67179" lon="5.81215">
        <ele>594</ele>
        <time>2016-06-05T18:58:01+02:00</time>
      </trkpt>
      <trkpt lat="46.67258" lon="5.81053">
        <ele>585</ele>
        <time>2016-06-05T18:58:06+02:00</time>
      </trkpt>
      <trkpt lat="46.67294" lon="5.80928">
        <ele>582</ele>
        <time>2016-06-05T18:58:11+02:00</time>
      </trkpt>
      <trkpt lat="46.67294" lon="5.80839">
        <ele>577</ele>
        <time>2016-06-05T18:58:16+02:00</time>
      </trkpt>
      <trkpt lat="46.67567" lon="5.80077">
        <ele>610</ele>
        <time>2016-06-05T18:58:21+02:00</time>
      </trkpt>
      <trkpt lat="46.67585" lon="5.79998">
        <ele>611</ele>
        <time>2016-06-05T18:58:26+02:00</time>
      </trkpt>
      <trkpt lat="46.67646" lon="5.7992">
        <ele>600</ele>
        <time>2016-06-05T18:58:31+02:00</time>
      </trkpt>
      <trkpt lat="46.67689" lon="5.79936">
        <ele>590</ele>
        <time>2016-06-05T18:58:36+02:00</time>
      </trkpt>
      <trkpt lat="46.67657" lon="5.79884">
        <ele>594</ele>
        <time>2016-06-05T18:58:41+02:00</time>
      </trkpt>
      <trkpt lat="46.6756" lon="5.79565">
        <ele>557</ele>
        <time>2016-06-05T18:58:46+02:00</time>
      </trkpt>
      <trkpt lat="46.67574" lon="5.79492">
        <ele>540</ele>
        <time>2016-06-05T18:58:51+02:00</time>
      </trkpt>
      <trkpt lat="46.67621" lon="5.7932">
        <ele>530</ele>
        <time>2016-06-05T18:58:56+02:00</time>
      </trkpt>
      <trkpt lat="46.67686" lon="5.79304">
        <ele>531</ele>
        <time>2016-06-05T18:59:01+02:00</time>
      </trkpt>
      <trkpt lat="46.67718" lon="5.79346">
        <ele>529</ele>
        <time>2016-06-05T18:59:06+02:00</time>
      </trkpt>
      <trkpt lat="46.67743" lon="5.79356">
        <ele>528</ele>
        <time>2016-06-05T18:59:11+02:00</time>
      </trkpt>
      <trkpt lat="46.67855" lon="5.79309">
        <ele>523</ele>
        <time>2016-06-05T18:59:16+02:00</time>
      </trkpt>
      <trkpt lat="46.67988" lon="5.79215">
        <ele>511</ele>
        <time>2016-06-05T18:59:21+02:00</time>
      </trkpt>
      <trkpt lat="46.68024" lon="5.79137">
        <ele>509</ele>
        <time>2016-06-05T18:59:26+02:00</time>
      </trkpt>
      <trkpt lat="46.68038" lon="5.79007">
        <ele>505</ele>
        <time>2016-06-05T18:59:31+02:00</time>
      </trkpt>
      <trkpt lat="46.68077" lon="5.78965">
        <ele>505</ele>
        <time>2016-06-05T18:59:36+02:00</time>
      </trkpt>
      <trkpt lat="46.68059" lon="5.78761">
        <ele>513</ele>
        <time>2016-06-05T18:59:41+02:00</time>
      </trkpt>
      <trkpt lat="46.68095" lon="5.78579">
        <ele>515</ele>
        <time>2016-06-05T18:59:46+02:00</time>
      </trkpt>
      <trkpt lat="46.68113" lon="5.78338">
        <ele>515</ele>
        <time>2016-06-05T18:59:51+02:00</time>
      </trkpt>
      <trkpt lat="46.68221" lon="5.78365">
        <ele>518</ele>
        <time>2016-06-05T18:59:56+02:00</time>
      </trkpt>
      <trkpt lat="46.68275" lon="5.78265">
        <ele>515</ele>
        <time>2016-06-05T19:00:01+02:00</time>
      </trkpt>
      <trkpt lat="46.68275" lon="5.78271">
        <ele>515</ele>
        <time>2016-06-05T19:00:06+02:00</time>
      </trkpt>
      <trkpt lat="46.68275" lon="5.78265">
        <ele>515</ele>
        <time>2016-06-05T19:00:11+02:00</time>
      </trkpt>
      <trkpt lat="46.68279" lon="5.78265">
        <ele>515</ele>
        <time>2016-06-05T19:00:16+02:00</time>
      </trkpt>
      <trkpt lat="46.68289" lon="5.7826">
        <ele>515</ele>
        <time>2016-06-05T19:00:21+02:00</time>
      </trkpt>
    </trkseg>
  </trk>
</gpx>